aviador You're here:

OKBK Decoded Metar

KUWAIT in KUWAIT
Report Time2017-07-26 04:00:00
UTC Time2017-07-26 04:37:48
Flight Rules vfr VFR
Wind360° at 11 kt
W.Decomp.*RWY 33: 9.8 kt HW 5.0 kt RCW
Visibility8000 m
Phenomena:N/A
Clouds:N/A
Expected CloudBase > 10,000 ft AGL from Temp-Dew spread
CeilingNone
Temp39°C (ISA +24)
Dew Point14°C (23% RH)
Heat Index38.8°C
AAT36.3°C
QNH0997 hPa
Density Alt3,671 ft
Elevation180 ft
Report Wrong Elevation
Raw Report
METAR OKBK 260400Z 36011KT 8000 NSC 39/14 Q0997 NOSIG=

Extra information for OKBK:More info

Metar Taf Metar & Taf Last 4 Metars F.Rules Stats Wind Profile Meteogram Temp Stats Airport Information Weather charts Add Link Nearby VenuesMetar ALERT Operation Metar Decoded Social comments